Situação meteorológica que não inspira cuidado.   -   Não há avisos

Nearby METAR Reports

 

LEZL - Sevilla, Spain
Distance from station: ENE 8km
Actualizado: 13/12/2017 10:00
Céu limpo
Céu limpo
 Vento de NE
Vento: NE 7 km/h
Temperatura: 7°C
Índice de frío: 6°C
Ponto de Orvalho: 3°C
Humidade: 76%
Barómetro: 1029 hPa
Resumo: Céu limpo
Visibility: greater than 10 km
2017/12/13 09:00 LEZL 130900Z 05004KT CAVOK 07/03 Q1029 NOSIG
LEMO - Morón, Spain
Distance from station: SE 43km
Actualizado: 13/12/2017 10:00
Céu limpo
Céu limpo
 Vento de NNE
Vento: NNE 11 km/h
Temperatura: 4°C
Índice de frío: 1°C
Ponto de Orvalho: 1°C
Humidade: 81%
Barómetro: 1028 hPa
Resumo: Céu limpo
Visibility: greater than 10 km
2017/12/13 09:00 LEMO 130900Z 02006KT 350V050 CAVOK 04/01 Q1028 NOSIG
LEJR - Jeréz, Spain
Distance from station: S 71km
Actualizado: 13/12/2017 10:00
Céu limpo
Céu limpo
 Vento de calm
Vento: Calmo
Temperatura: 4°C
Ponto de Orvalho: 2°C
Humidade: 87%
Barómetro: 1028 hPa
Resumo: Céu limpo
Visibility: greater than 10 km
2017/12/13 09:00 LEJR 130900Z 00000KT CAVOK 04/02 Q1028
 
LERT - Rota, Spain
Distance from station: SSW 89km
Actualizado: 13/12/2017 10:00
Céu limpo
Céu limpo
 Vento de NE
Vento: NE 11 km/h
Temperatura: 6°C
Índice de frío: 4°C
Ponto de Orvalho: 2°C
Humidade: 76%
Barómetro: 1028 hPa
Resumo: Céu limpo
Visibility: greater than 10 km
2017/12/13 09:00 LERT 130900Z 04006KT CAVOK 06/02 Q1028 NOSIG
LEMG - Málaga, Spain
Distance from station: ESE 157km
Actualizado: 13/12/2017 10:00
Few Clouds
Few Clouds
 Vento de WNW
Vento: WNW 19 km/h
Temperatura: 6°C
Índice de frío: 3°C
Ponto de Orvalho: 1°C
Humidade: 71%
Barómetro: 1029 hPa
Clouds: Few Clouds
Visibility: 10 km
Cloud details: Few Clouds 762 m
2017/12/13 09:00 LEMG 130900Z 30010KT 9999 FEW025 06/01 Q1029 NOSIG
LEBA - Córdoba, Spain
Distance from station: ENE 115km
Actualizado: 13/12/2017 10:00
Céu limpo
Céu limpo
 Vento de E
Vento: E 11 km/h
Temperatura: 4°C
Índice de frío: 1°C
Ponto de Orvalho: 1°C
Humidade: 81%
Barómetro: 1029 hPa
Resumo: Céu limpo
Visibility: greater than 10 km
2017/12/13 09:00 LEBA 130900Z 09006KT CAVOK 04/01 Q1029
 
LEGR - Granada, Spain
Distance from station: E 198km
Actualizado: 13/12/2017 10:00
Céu limpo
Céu limpo
 Vento de calm
Vento: Calmo
Temperatura: 2°C
Ponto de Orvalho: -1°C
Humidade: 81%
Barómetro: 1029 hPa
Resumo: Céu limpo
Visibility: greater than 10 km
2017/12/13 09:00 LEGR 130900Z 00000KT CAVOK 02/M01 Q1029
LEAM - Almería, Spain
Distance from station: E 326km
Actualizado: 13/12/2017 10:00
Céu limpo
Céu limpo
 Vento de NNW
Vento: NNW 24 km/h
Temperatura: 9°C
Índice de frío: 6°C
Ponto de Orvalho: -3°C
Humidade: 43%
Barómetro: 1028 hPa
Resumo: Céu limpo
Visibility: greater than 10 km
2017/12/13 09:00 LEAM 130900Z 33013KT CAVOK 09/M03 Q1028
LEMD - Madrid/Barajas, Spain
Distance from station: NNE 402km
Actualizado: 13/12/2017 10:00
Céu limpo
Céu limpo
 Vento de varies
Vento: varies 2 km/h
Temperatura: 0°C
Ponto de Orvalho: -2°C
Humidade: 87%
Barómetro: 1028 hPa
Resumo: Céu limpo
Visibility: greater than 10 km
2017/12/13 09:00 LEMD 130900Z VRB01KT CAVOK M00/M02 Q1028 NOSIG
 
LEVD - Valladolid, Spain
Distance from station: N 492km
Actualizado: 13/12/2017 10:00
Muito nublado
Muito nublado
 Vento de SSW
Vento: SSW 17 km/h
Temperatura: 1°C
Índice de frío: -3°C
Ponto de Orvalho: 0°C
Humidade: 93%
Barómetro: 1024 hPa
Clouds: Muito nublado
Visibility: 10 km
Cloud details: Parcialmente nublado 213 m
Muito nublado 335 m
2017/12/13 09:00 LEVD 130900Z 20009KT 9999 SCT007 BKN011 01/00 Q1024
LEBL - Barcelona, Spain
Distance from station: NE 816km
Actualizado: 13/12/2017 10:00
Céu limpo
Céu limpo
 Vento de NW
Vento: NW 15 km/h
Temperatura: 6°C
Índice de frío: 3°C
Ponto de Orvalho: 0°C
Humidade: 66%
Barómetro: 1024 hPa
Resumo: Céu limpo
Visibility: greater than 10 km
2017/12/13 09:00 LEBL 130900Z 32008KT 280V350 CAVOK 06/00 Q1024 NOSIG
LEVC - Valencia, Spain
Distance from station: ENE 535km
Actualizado: 13/12/2017 10:00
Céu limpo
Céu limpo
 Vento de WSW
Vento: WSW 17 km/h
Temperatura: 8°C
Índice de frío: 5°C
Ponto de Orvalho: -1°C
Humidade: 53%
Barómetro: 1027 hPa
Resumo: Céu limpo
Visibility: greater than 10 km
2017/12/13 09:00 LEVC 130900Z 25009KT CAVOK 08/M01 Q1027 NOSIG